sensor_id;sensor_type;location;lat;lon;timestamp;temperature;humidity
56729;DHT22;42612;52.232;7.560;2024-02-15T00:00:28;15.20;72.80
56729;DHT22;42612;52.232;7.560;2024-02-15T00:02:54;15.10;72.70
56729;DHT22;42612;52.232;7.560;2024-02-15T00:05:19;15.20;73.40
56729;DHT22;42612;52.232;7.560;2024-02-15T00:07:45;15.20;72.80
56729;DHT22;42612;52.232;7.560;2024-02-15T00:10:14;15.20;72.80
56729;DHT22;42612;52.232;7.560;2024-02-15T00:12:40;15.20;72.70
56729;DHT22;42612;52.232;7.560;2024-02-15T00:15:06;15.20;72.80
56729;DHT22;42612;52.232;7.560;2024-02-15T00:17:33;15.10;72.60
56729;DHT22;42612;52.232;7.560;2024-02-15T00:20:02;15.20;72.80
56729;DHT22;42612;52.232;7.560;2024-02-15T00:22:37;15.10;72.70
56729;DHT22;42612;52.232;7.560;2024-02-15T00:25:04;15.20;72.70
56729;DHT22;42612;52.232;7.560;2024-02-15T00:27:31;15.20;72.80
56729;DHT22;42612;52.232;7.560;2024-02-15T00:30:00;15.20;72.90
56729;DHT22;42612;52.232;7.560;2024-02-15T00:32:25;15.20;72.80
56729;DHT22;42612;52.232;7.560;2024-02-15T00:34:51;15.20;72.80
56729;DHT22;42612;52.232;7.560;2024-02-15T00:37:17;15.20;72.80
56729;DHT22;42612;52.232;7.560;2024-02-15T00:39:42;15.20;72.70
56729;DHT22;42612;52.232;7.560;2024-02-15T00:42:08;15.20;72.70
56729;DHT22;42612;52.232;7.560;2024-02-15T00:44:34;15.20;72.70
56729;DHT22;42612;52.232;7.560;2024-02-15T00:47:00;15.20;72.70
56729;DHT22;42612;52.232;7.560;2024-02-15T00:49:26;15.20;72.70
56729;DHT22;42612;52.232;7.560;2024-02-15T00:51:53;15.20;72.60
56729;DHT22;42612;52.232;7.560;2024-02-15T00:54:19;15.20;72.60
56729;DHT22;42612;52.232;7.560;2024-02-15T00:56:45;15.20;72.70
56729;DHT22;42612;52.232;7.560;2024-02-15T00:59:10;15.20;72.60
56729;DHT22;42612;52.232;7.560;2024-02-15T01:01:36;15.20;72.60
56729;DHT22;42612;52.232;7.560;2024-02-15T01:04:04;15.20;72.60
56729;DHT22;42612;52.232;7.560;2024-02-15T01:06:29;15.20;72.70
56729;DHT22;42612;52.232;7.560;2024-02-15T01:08:55;15.20;72.60
56729;DHT22;42612;52.232;7.560;2024-02-15T01:11:22;15.20;72.60
56729;DHT22;42612;52.232;7.560;2024-02-15T01:13:49;15.20;72.60
56729;DHT22;42612;52.232;7.560;2024-02-15T01:16:16;15.20;72.70
56729;DHT22;42612;52.232;7.560;2024-02-15T01:18:42;15.20;72.90
56729;DHT22;42612;52.232;7.560;2024-02-15T01:21:07;15.20;72.40
56729;DHT22;42612;52.232;7.560;2024-02-15T01:23:34;15.20;72.50
56729;DHT22;42612;52.232;7.560;2024-02-15T01:26:02;15.20;72.60
56729;DHT22;42612;52.232;7.560;2024-02-15T01:28:28;15.20;72.70
56729;DHT22;42612;52.232;7.560;2024-02-15T01:30:54;15.20;72.70
56729;DHT22;42612;52.232;7.560;2024-02-15T01:33:20;15.20;72.80
56729;DHT22;42612;52.232;7.560;2024-02-15T01:35:45;15.20;72.80
56729;DHT22;42612;52.232;7.560;2024-02-15T01:38:11;15.20;72.80
56729;DHT22;42612;52.232;7.560;2024-02-15T01:40:38;15.10;72.90
56729;DHT22;42612;52.232;7.560;2024-02-15T01:43:04;15.10;72.90
56729;DHT22;42612;52.232;7.560;2024-02-15T01:45:31;15.20;73.00
56729;DHT22;42612;52.232;7.560;2024-02-15T01:47:57;15.10;72.90
56729;DHT22;42612;52.232;7.560;2024-02-15T01:50:24;15.10;73.00
56729;DHT22;42612;52.232;7.560;2024-02-15T01:52:53;15.10;73.00
56729;DHT22;42612;52.232;7.560;2024-02-15T01:55:20;15.10;73.10
56729;DHT22;42612;52.232;7.560;2024-02-15T01:57:48;15.20;73.10
56729;DHT22;42612;52.232;7.560;2024-02-15T02:00:16;15.10;73.10
56729;DHT22;42612;52.232;7.560;2024-02-15T02:02:44;15.10;73.10
56729;DHT22;42612;52.232;7.560;2024-02-15T02:05:10;15.20;73.20
56729;DHT22;42612;52.232;7.560;2024-02-15T02:07:37;15.20;73.70
56729;DHT22;42612;52.232;7.560;2024-02-15T02:10:03;15.20;72.90
56729;DHT22;42612;52.232;7.560;2024-02-15T02:12:31;15.20;72.90
56729;DHT22;42612;52.232;7.560;2024-02-15T02:14:57;15.20;73.10
56729;DHT22;42612;52.232;7.560;2024-02-15T02:17:22;15.20;73.10
56729;DHT22;42612;52.232;7.560;2024-02-15T02:19:48;15.20;73.10
56729;DHT22;42612;52.232;7.560;2024-02-15T02:22:18;15.20;73.10
56729;DHT22;42612;52.232;7.560;2024-02-15T02:25:06;15.20;73.20
56729;DHT22;42612;52.232;7.560;2024-02-15T02:27:34;15.20;73.70
56729;DHT22;42612;52.232;7.560;2024-02-15T02:30:03;15.20;73.20
56729;DHT22;42612;52.232;7.560;2024-02-15T02:32:33;15.20;73.20
56729;DHT22;42612;52.232;7.560;2024-02-15T02:35:00;15.20;73.20
56729;DHT22;42612;52.232;7.560;2024-02-15T02:37:26;15.20;73.80
56729;DHT22;42612;52.232;7.560;2024-02-15T02:39:52;15.20;73.10
56729;DHT22;42612;52.232;7.560;2024-02-15T02:42:18;15.20;73.10
56729;DHT22;42612;52.232;7.560;2024-02-15T02:44:44;15.20;73.10
56729;DHT22;42612;52.232;7.560;2024-02-15T02:47:10;15.20;73.10
56729;DHT22;42612;52.232;7.560;2024-02-15T02:49:36;15.30;73.10
56729;DHT22;42612;52.232;7.560;2024-02-15T02:52:03;15.30;73.10
56729;DHT22;42612;52.232;7.560;2024-02-15T02:54:29;15.30;73.00
56729;DHT22;42612;52.232;7.560;2024-02-15T02:56:55;15.30;73.00
56729;DHT22;42612;52.232;7.560;2024-02-15T02:59:21;15.30;72.90
56729;DHT22;42612;52.232;7.560;2024-02-15T03:01:47;15.30;72.90
56729;DHT22;42612;52.232;7.560;2024-02-15T03:04:15;15.30;72.90
56729;DHT22;42612;52.232;7.560;2024-02-15T03:06:44;15.30;72.90
56729;DHT22;42612;52.232;7.560;2024-02-15T03:09:10;15.30;72.80
56729;DHT22;42612;52.232;7.560;2024-02-15T03:11:39;15.30;72.80
56729;DHT22;42612;52.232;7.560;2024-02-15T03:14:05;15.30;72.80
56729;DHT22;42612;52.232;7.560;2024-02-15T03:16:33;15.30;72.80
56729;DHT22;42612;52.232;7.560;2024-02-15T03:19:00;15.30;72.80
56729;DHT22;42612;52.232;7.560;2024-02-15T03:21:28;15.30;72.70
56729;DHT22;42612;52.232;7.560;2024-02-15T03:23:54;15.30;72.70
56729;DHT22;42612;52.232;7.560;2024-02-15T03:26:30;15.30;72.70
56729;DHT22;42612;52.232;7.560;2024-02-15T03:29:04;15.30;72.80
56729;DHT22;42612;52.232;7.560;2024-02-15T03:31:29;15.40;72.70
56729;DHT22;42612;52.232;7.560;2024-02-15T03:33:58;15.30;72.60
56729;DHT22;42612;52.232;7.560;2024-02-15T03:36:24;15.40;72.60
56729;DHT22;42612;52.232;7.560;2024-02-15T03:38:50;15.40;72.70
56729;DHT22;42612;52.232;7.560;2024-02-15T03:41:18;15.40;72.70
56729;DHT22;42612;52.232;7.560;2024-02-15T03:43:44;15.30;72.60
56729;DHT22;42612;52.232;7.560;2024-02-15T03:46:09;15.30;72.60
56729;DHT22;42612;52.232;7.560;2024-02-15T03:48:38;15.30;72.60
56729;DHT22;42612;52.232;7.560;2024-02-15T03:51:03;15.40;72.70
56729;DHT22;42612;52.232;7.560;2024-02-15T03:53:30;15.40;72.70
56729;DHT22;42612;52.232;7.560;2024-02-15T03:55:58;15.30;72.60
56729;DHT22;42612;52.232;7.560;2024-02-15T03:58:26;15.40;73.30
56729;DHT22;42612;52.232;7.560;2024-02-15T04:00:51;15.40;73.30
56729;DHT22;42612;52.232;7.560;2024-02-15T04:03:17;15.30;73.30
56729;DHT22;42612;52.232;7.560;2024-02-15T04:05:43;15.30;72.60
56729;DHT22;42612;52.232;7.560;2024-02-15T04:08:08;15.40;72.60
56729;DHT22;42612;52.232;7.560;2024-02-15T04:10:35;15.40;72.70
56729;DHT22;42612;52.232;7.560;2024-02-15T04:13:00;15.40;72.60
56729;DHT22;42612;52.232;7.560;2024-02-15T04:15:26;15.30;72.60
56729;DHT22;42612;52.232;7.560;2024-02-15T04:17:52;15.40;72.70
56729;DHT22;42612;52.232;7.560;2024-02-15T04:20:22;15.40;72.60
56729;DHT22;42612;52.232;7.560;2024-02-15T04:22:48;15.40;72.60
56729;DHT22;42612;52.232;7.560;2024-02-15T04:25:15;15.40;73.30
56729;DHT22;42612;52.232;7.560;2024-02-15T04:27:46;15.40;73.00
56729;DHT22;42612;52.232;7.560;2024-02-15T04:30:15;15.40;72.40
56729;DHT22;42612;52.232;7.560;2024-02-15T04:32:41;15.40;72.40
56729;DHT22;42612;52.232;7.560;2024-02-15T04:35:07;15.40;72.50
56729;DHT22;42612;52.232;7.560;2024-02-15T04:37:32;15.40;72.40
56729;DHT22;42612;52.232;7.560;2024-02-15T04:40:00;15.40;72.40
56729;DHT22;42612;52.232;7.560;2024-02-15T04:42:33;15.40;72.40
56729;DHT22;42612;52.232;7.560;2024-02-15T04:45:00;15.40;72.40
56729;DHT22;42612;52.232;7.560;2024-02-15T04:47:26;15.40;72.40
56729;DHT22;42612;52.232;7.560;2024-02-15T04:49:52;15.40;72.40
56729;DHT22;42612;52.232;7.560;2024-02-15T04:52:17;15.40;72.40
56729;DHT22;42612;52.232;7.560;2024-02-15T04:54:43;15.40;72.50
56729;DHT22;42612;52.232;7.560;2024-02-15T04:57:10;15.40;72.50
56729;DHT22;42612;52.232;7.560;2024-02-15T04:59:37;15.40;72.50
56729;DHT22;42612;52.232;7.560;2024-02-15T05:02:03;15.40;72.60
56729;DHT22;42612;52.232;7.560;2024-02-15T05:04:29;15.40;72.50
56729;DHT22;42612;52.232;7.560;2024-02-15T05:06:54;15.30;72.50
56729;DHT22;42612;52.232;7.560;2024-02-15T05:09:21;15.30;72.50
56729;DHT22;42612;52.232;7.560;2024-02-15T05:11:48;15.30;73.20
56729;DHT22;42612;52.232;7.560;2024-02-15T05:14:14;15.30;72.60
56729;DHT22;42612;52.232;7.560;2024-02-15T05:16:45;15.30;72.50
56729;DHT22;42612;52.232;7.560;2024-02-15T05:19:16;15.30;72.50
56729;DHT22;42612;52.232;7.560;2024-02-15T05:21:43;15.30;72.50
56729;DHT22;42612;52.232;7.560;2024-02-15T05:24:14;15.30;72.50
56729;DHT22;42612;52.232;7.560;2024-02-15T05:26:41;15.30;72.50
56729;DHT22;42612;52.232;7.560;2024-02-15T05:29:12;15.30;72.50
56729;DHT22;42612;52.232;7.560;2024-02-15T05:31:38;15.30;73.10
56729;DHT22;42612;52.232;7.560;2024-02-15T05:34:06;15.30;72.40
56729;DHT22;42612;52.232;7.560;2024-02-15T05:36:37;15.30;72.40
56729;DHT22;42612;52.232;7.560;2024-02-15T05:39:04;15.30;72.40
56729;DHT22;42612;52.232;7.560;2024-02-15T05:41:33;15.30;72.30
56729;DHT22;42612;52.232;7.560;2024-02-15T05:44:00;15.30;72.30
56729;DHT22;42612;52.232;7.560;2024-02-15T05:46:26;15.40;72.30
56729;DHT22;42612;52.232;7.560;2024-02-15T05:48:53;15.30;72.20
56729;DHT22;42612;52.232;7.560;2024-02-15T05:51:19;15.30;72.20
56729;DHT22;42612;52.232;7.560;2024-02-15T05:53:45;15.40;72.90
56729;DHT22;42612;52.232;7.560;2024-02-15T05:56:11;15.30;72.10
56729;DHT22;42612;52.232;7.560;2024-02-15T05:58:38;15.30;72.00
56729;DHT22;42612;52.232;7.560;2024-02-15T06:01:05;15.30;72.00
56729;DHT22;42612;52.232;7.560;2024-02-15T06:03:33;15.30;72.00
56729;DHT22;42612;52.232;7.560;2024-02-15T06:05:59;15.30;72.00
56729;DHT22;42612;52.232;7.560;2024-02-15T06:08:28;15.30;72.30
56729;DHT22;42612;52.232;7.560;2024-02-15T06:10:57;15.30;72.50
56729;DHT22;42612;52.232;7.560;2024-02-15T06:13:23;15.30;71.90
56729;DHT22;42612;52.232;7.560;2024-02-15T06:15:50;15.30;72.00
56729;DHT22;42612;52.232;7.560;2024-02-15T06:18:24;15.20;72.00
56729;DHT22;42612;52.232;7.560;2024-02-15T06:20:53;15.20;72.00
56729;DHT22;42612;52.232;7.560;2024-02-15T06:23:19;15.20;72.00
56729;DHT22;42612;52.232;7.560;2024-02-15T06:25:51;15.20;72.00
56729;DHT22;42612;52.232;7.560;2024-02-15T06:28:44;15.20;72.10
56729;DHT22;42612;52.232;7.560;2024-02-15T06:31:28;15.20;72.00
56729;DHT22;42612;52.232;7.560;2024-02-15T06:34:12;15.20;72.00
56729;DHT22;42612;52.232;7.560;2024-02-15T06:36:56;15.20;72.00
56729;DHT22;42612;52.232;7.560;2024-02-15T06:39:41;15.20;72.10
56729;DHT22;42612;52.232;7.560;2024-02-15T06:42:16;15.10;72.00
56729;DHT22;42612;52.232;7.560;2024-02-15T06:44:44;15.20;72.10
56729;DHT22;42612;52.232;7.560;2024-02-15T06:47:10;15.20;72.80
56729;DHT22;42612;52.232;7.560;2024-02-15T06:49:40;15.10;72.10
56729;DHT22;42612;52.232;7.560;2024-02-15T06:52:07;15.10;72.20
56729;DHT22;42612;52.232;7.560;2024-02-15T06:54:39;15.10;72.10
56729;DHT22;42612;52.232;7.560;2024-02-15T06:57:06;15.10;72.40
56729;DHT22;42612;52.232;7.560;2024-02-15T06:59:32;15.10;72.70
56729;DHT22;42612;52.232;7.560;2024-02-15T07:01:59;15.20;72.10
56729;DHT22;42612;52.232;7.560;2024-02-15T07:04:25;15.10;72.10
56729;DHT22;42612;52.232;7.560;2024-02-15T07:06:52;15.10;72.10
56729;DHT22;42612;52.232;7.560;2024-02-15T07:09:20;15.20;72.20
56729;DHT22;42612;52.232;7.560;2024-02-15T07:11:47;15.10;72.20
56729;DHT22;42612;52.232;7.560;2024-02-15T07:14:13;15.20;72.20
56729;DHT22;42612;52.232;7.560;2024-02-15T07:16:44;15.10;72.20
56729;DHT22;42612;52.232;7.560;2024-02-15T07:19:11;15.20;72.50
56729;DHT22;42612;52.232;7.560;2024-02-15T07:21:37;15.20;72.10
56729;DHT22;42612;52.232;7.560;2024-02-15T07:24:03;15.20;72.10
56729;DHT22;42612;52.232;7.560;2024-02-15T07:26:30;15.20;72.20
56729;DHT22;42612;52.232;7.560;2024-02-15T07:28:56;15.20;72.20
56729;DHT22;42612;52.232;7.560;2024-02-15T07:31:27;15.20;72.20
56729;DHT22;42612;52.232;7.560;2024-02-15T07:33:54;15.10;72.10
56729;DHT22;42612;52.232;7.560;2024-02-15T07:36:20;15.20;72.20
56729;DHT22;42612;52.232;7.560;2024-02-15T07:38:50;15.20;72.90
56729;DHT22;42612;52.232;7.560;2024-02-15T07:41:23;15.20;72.20
56729;DHT22;42612;52.232;7.560;2024-02-15T07:43:49;15.20;72.30
56729;DHT22;42612;52.232;7.560;2024-02-15T07:46:16;15.20;72.20
56729;DHT22;42612;52.232;7.560;2024-02-15T07:48:45;15.20;72.20
56729;DHT22;42612;52.232;7.560;2024-02-15T07:51:15;15.20;72.20
56729;DHT22;42612;52.232;7.560;2024-02-15T07:53:43;15.20;72.20
56729;DHT22;42612;52.232;7.560;2024-02-15T07:56:10;15.20;72.20
56729;DHT22;42612;52.232;7.560;2024-02-15T07:58:43;15.20;72.20
56729;DHT22;42612;52.232;7.560;2024-02-15T08:01:16;15.20;72.30
56729;DHT22;42612;52.232;7.560;2024-02-15T08:03:42;15.20;72.20
56729;DHT22;42612;52.232;7.560;2024-02-15T08:06:15;15.20;72.20
56729;DHT22;42612;52.232;7.560;2024-02-15T08:08:46;15.20;72.30
56729;DHT22;42612;52.232;7.560;2024-02-15T08:11:14;15.20;72.30
56729;DHT22;42612;52.232;7.560;2024-02-15T08:13:46;15.20;72.30
56729;DHT22;42612;52.232;7.560;2024-02-15T08:16:19;15.20;72.40
56729;DHT22;42612;52.232;7.560;2024-02-15T08:18:48;15.20;72.40
56729;DHT22;42612;52.232;7.560;2024-02-15T08:21:17;15.20;72.40
56729;DHT22;42612;52.232;7.560;2024-02-15T08:23:43;15.10;72.30
56729;DHT22;42612;52.232;7.560;2024-02-15T08:26:09;15.20;72.50
56729;DHT22;42612;52.232;7.560;2024-02-15T08:28:38;15.20;72.50
56729;DHT22;42612;52.232;7.560;2024-02-15T08:31:04;15.20;72.50
56729;DHT22;42612;52.232;7.560;2024-02-15T08:33:30;15.20;72.50
56729;DHT22;42612;52.232;7.560;2024-02-15T08:35:56;15.20;72.60
56729;DHT22;42612;52.232;7.560;2024-02-15T08:38:23;15.20;72.60
56729;DHT22;42612;52.232;7.560;2024-02-15T08:40:48;15.20;72.60
56729;DHT22;42612;52.232;7.560;2024-02-15T08:43:15;15.20;72.60
56729;DHT22;42612;52.232;7.560;2024-02-15T08:45:41;15.20;72.60
56729;DHT22;42612;52.232;7.560;2024-02-15T08:48:08;15.20;72.60
56729;DHT22;42612;52.232;7.560;2024-02-15T08:50:33;15.20;72.60
56729;DHT22;42612;52.232;7.560;2024-02-15T08:52:59;15.20;72.60
56729;DHT22;42612;52.232;7.560;2024-02-15T08:55:25;15.20;72.60
56729;DHT22;42612;52.232;7.560;2024-02-15T08:57:53;15.20;72.60
56729;DHT22;42612;52.232;7.560;2024-02-15T09:00:20;15.20;72.60
56729;DHT22;42612;52.232;7.560;2024-02-15T09:02:46;15.20;72.60
56729;DHT22;42612;52.232;7.560;2024-02-15T09:05:13;15.20;72.60
56729;DHT22;42612;52.232;7.560;2024-02-15T09:07:43;15.20;72.60
56729;DHT22;42612;52.232;7.560;2024-02-15T09:10:10;15.30;72.60
56729;DHT22;42612;52.232;7.560;2024-02-15T09:12:37;15.30;72.60
56729;DHT22;42612;52.232;7.560;2024-02-15T09:15:09;15.30;72.60
56729;DHT22;42612;52.232;7.560;2024-02-15T09:17:36;15.30;72.60
56729;DHT22;42612;52.232;7.560;2024-02-15T09:20:09;15.20;72.60
56729;DHT22;42612;52.232;7.560;2024-02-15T09:22:47;15.20;72.70
56729;DHT22;42612;52.232;7.560;2024-02-15T09:25:14;15.20;72.70
56729;DHT22;42612;52.232;7.560;2024-02-15T09:27:41;15.20;72.70
56729;DHT22;42612;52.232;7.560;2024-02-15T09:30:07;15.30;72.70
56729;DHT22;42612;52.232;7.560;2024-02-15T09:32:38;15.30;72.70
56729;DHT22;42612;52.232;7.560;2024-02-15T09:35:05;15.30;72.70
56729;DHT22;42612;52.232;7.560;2024-02-15T09:37:43;15.30;72.60
56729;DHT22;42612;52.232;7.560;2024-02-15T09:40:12;15.30;72.80
56729;DHT22;42612;52.232;7.560;2024-02-15T09:42:38;15.30;72.60
56729;DHT22;42612;52.232;7.560;2024-02-15T09:45:07;15.30;72.70
56729;DHT22;42612;52.232;7.560;2024-02-15T09:47:37;15.30;72.70
56729;DHT22;42612;52.232;7.560;2024-02-15T09:53:00;15.20;72.80
56729;DHT22;42612;52.232;7.560;2024-02-15T09:55:28;15.20;73.20
56729;DHT22;42612;52.232;7.560;2024-02-15T09:57:55;15.20;72.90
56729;DHT22;42612;52.232;7.560;2024-02-15T10:00:20;15.20;73.00
56729;DHT22;42612;52.232;7.560;2024-02-15T10:02:53;15.10;73.00
56729;DHT22;42612;52.232;7.560;2024-02-15T10:05:20;15.10;73.30
56729;DHT22;42612;52.232;7.560;2024-02-15T10:07:46;15.10;73.10
56729;DHT22;42612;52.232;7.560;2024-02-15T10:10:19;15.10;73.30
56729;DHT22;42612;52.232;7.560;2024-02-15T10:12:50;15.10;73.30
56729;DHT22;42612;52.232;7.560;2024-02-15T10:15:28;15.10;73.40
56729;DHT22;42612;52.232;7.560;2024-02-15T10:17:56;15.10;73.60
56729;DHT22;42612;52.232;7.560;2024-02-15T10:20:22;15.10;73.50
56729;DHT22;42612;52.232;7.560;2024-02-15T10:25:29;15.00;73.40
56729;DHT22;42612;52.232;7.560;2024-02-15T10:28:11;15.10;73.60
56729;DHT22;42612;52.232;7.560;2024-02-15T10:30:39;15.10;73.90
56729;DHT22;42612;52.232;7.560;2024-02-15T10:33:09;15.00;73.50
56729;DHT22;42612;52.232;7.560;2024-02-15T10:35:35;15.00;73.50
56729;DHT22;42612;52.232;7.560;2024-02-15T10:38:11;15.10;73.50
56729;DHT22;42612;52.232;7.560;2024-02-15T10:40:39;15.10;73.70
56729;DHT22;42612;52.232;7.560;2024-02-15T10:43:09;15.10;73.50
56729;DHT22;42612;52.232;7.560;2024-02-15T10:45:38;15.10;73.40
56729;DHT22;42612;52.232;7.560;2024-02-15T10:48:09;15.10;73.50
56729;DHT22;42612;52.232;7.560;2024-02-15T10:50:35;15.10;73.50
56729;DHT22;42612;52.232;7.560;2024-02-15T10:53:11;15.10;73.40
56729;DHT22;42612;52.232;7.560;2024-02-15T10:56:05;15.10;73.60
56729;DHT22;42612;52.232;7.560;2024-02-15T10:58:47;15.20;73.80
56729;DHT22;42612;52.232;7.560;2024-02-15T11:01:17;15.20;73.60
56729;DHT22;42612;52.232;7.560;2024-02-15T11:03:51;15.20;73.50
56729;DHT22;42612;52.232;7.560;2024-02-15T11:06:20;15.20;73.60
56729;DHT22;42612;52.232;7.560;2024-02-15T11:08:47;15.20;73.50
56729;DHT22;42612;52.232;7.560;2024-02-15T11:11:14;15.20;73.40
56729;DHT22;42612;52.232;7.560;2024-02-15T11:13:40;15.30;73.40
56729;DHT22;42612;52.232;7.560;2024-02-15T11:16:08;15.30;73.40
56729;DHT22;42612;52.232;7.560;2024-02-15T11:18:49;15.30;73.30
56729;DHT22;42612;52.232;7.560;2024-02-15T11:21:17;15.40;73.50
56729;DHT22;42612;52.232;7.560;2024-02-15T11:23:44;15.40;73.30
56729;DHT22;42612;52.232;7.560;2024-02-15T11:26:47;15.40;73.30
56729;DHT22;42612;52.232;7.560;2024-02-15T11:43:09;15.50;72.80
56729;DHT22;42612;52.232;7.560;2024-02-15T11:45:36;15.50;72.80
56729;DHT22;42612;52.232;7.560;2024-02-15T11:48:10;15.50;72.80
56729;DHT22;42612;52.232;7.560;2024-02-15T11:50:39;15.60;72.80
56729;DHT22;42612;52.232;7.560;2024-02-15T11:53:07;15.60;72.80
56729;DHT22;42612;52.232;7.560;2024-02-15T11:55:35;15.60;72.70
56729;DHT22;42612;52.232;7.560;2024-02-15T11:58:03;15.60;72.70
56729;DHT22;42612;52.232;7.560;2024-02-15T12:00:32;15.60;72.70
56729;DHT22;42612;52.232;7.560;2024-02-15T12:03:17;15.60;72.70
56729;DHT22;42612;52.232;7.560;2024-02-15T12:06:03;15.60;72.70
56729;DHT22;42612;52.232;7.560;2024-02-15T12:08:48;15.70;73.30
56729;DHT22;42612;52.232;7.560;2024-02-15T12:11:34;15.70;72.70
56729;DHT22;42612;52.232;7.560;2024-02-15T12:14:18;15.70;72.60
56729;DHT22;42612;52.232;7.560;2024-02-15T12:17:07;15.70;72.60
56729;DHT22;42612;52.232;7.560;2024-02-15T12:19:53;15.70;72.60
56729;DHT22;42612;52.232;7.560;2024-02-15T12:22:44;15.70;73.30
56729;DHT22;42612;52.232;7.560;2024-02-15T12:25:15;15.70;72.60
56729;DHT22;42612;52.232;7.560;2024-02-15T12:27:42;15.70;72.60
56729;DHT22;42612;52.232;7.560;2024-02-15T12:30:17;15.70;72.60
56729;DHT22;42612;52.232;7.560;2024-02-15T12:32:51;15.80;72.60
56729;DHT22;42612;52.232;7.560;2024-02-15T12:35:21;15.80;72.60
56729;DHT22;42612;52.232;7.560;2024-02-15T12:40:31;15.90;72.50
56729;DHT22;42612;52.232;7.560;2024-02-15T12:42:58;15.90;72.60
56729;DHT22;42612;52.232;7.560;2024-02-15T12:45:26;15.90;72.60
56729;DHT22;42612;52.232;7.560;2024-02-15T12:47:55;15.90;72.50
56729;DHT22;42612;52.232;7.560;2024-02-15T12:50:29;15.90;72.50
56729;DHT22;42612;52.232;7.560;2024-02-15T12:52:55;15.90;72.80
56729;DHT22;42612;52.232;7.560;2024-02-15T12:55:25;16.00;72.60
56729;DHT22;42612;52.232;7.560;2024-02-15T12:57:51;16.00;72.50
56729;DHT22;42612;52.232;7.560;2024-02-15T13:00:19;16.00;72.40
56729;DHT22;42612;52.232;7.560;2024-02-15T13:02:50;16.10;72.40
56729;DHT22;42612;52.232;7.560;2024-02-15T13:05:17;16.10;72.40
56729;DHT22;42612;52.232;7.560;2024-02-15T13:07:50;16.10;72.40
56729;DHT22;42612;52.232;7.560;2024-02-15T13:10:17;16.10;72.40
56729;DHT22;42612;52.232;7.560;2024-02-15T13:12:43;16.10;72.30
56729;DHT22;42612;52.232;7.560;2024-02-15T13:15:14;16.10;72.30
56729;DHT22;42612;52.232;7.560;2024-02-15T13:17:43;16.20;72.40
56729;DHT22;42612;52.232;7.560;2024-02-15T13:20:23;16.20;72.10
56729;DHT22;42612;52.232;7.560;2024-02-15T13:23:17;16.20;72.10
56729;DHT22;42612;52.232;7.560;2024-02-15T13:25:51;16.30;72.20
56729;DHT22;42612;52.232;7.560;2024-02-15T13:28:22;16.30;72.10
56729;DHT22;42612;52.232;7.560;2024-02-15T13:30:48;16.30;72.10
56729;DHT22;42612;52.232;7.560;2024-02-15T13:33:15;16.30;72.10
56729;DHT22;42612;52.232;7.560;2024-02-15T13:35:41;16.30;72.00
56729;DHT22;42612;52.232;7.560;2024-02-15T13:38:07;16.40;72.10
56729;DHT22;42612;52.232;7.560;2024-02-15T13:40:39;16.30;72.00
56729;DHT22;42612;52.232;7.560;2024-02-15T13:43:06;16.40;72.00
56729;DHT22;42612;52.232;7.560;2024-02-15T13:45:38;16.40;71.90
56729;DHT22;42612;52.232;7.560;2024-02-15T13:48:08;16.40;71.80
56729;DHT22;42612;52.232;7.560;2024-02-15T13:50:34;16.50;71.70
56729;DHT22;42612;52.232;7.560;2024-02-15T13:53:01;16.50;71.70
56729;DHT22;42612;52.232;7.560;2024-02-15T13:55:28;16.50;71.70
56729;DHT22;42612;52.232;7.560;2024-02-15T13:57:55;16.50;71.50
56729;DHT22;42612;52.232;7.560;2024-02-15T14:00:25;16.60;71.40
56729;DHT22;42612;52.232;7.560;2024-02-15T14:03:11;16.60;71.30
56729;DHT22;42612;52.232;7.560;2024-02-15T14:05:37;16.60;71.30
56729;DHT22;42612;52.232;7.560;2024-02-15T14:08:05;16.60;71.20
56729;DHT22;42612;52.232;7.560;2024-02-15T14:10:33;16.70;71.10
56729;DHT22;42612;52.232;7.560;2024-02-15T14:13:19;16.70;70.90
56729;DHT22;42612;52.232;7.560;2024-02-15T14:15:48;16.70;70.90
56729;DHT22;42612;52.232;7.560;2024-02-15T14:18:13;16.70;70.90
56729;DHT22;42612;52.232;7.560;2024-02-15T14:20:40;16.80;70.90
56729;DHT22;42612;52.232;7.560;2024-02-15T14:23:08;16.70;70.80
56729;DHT22;42612;52.232;7.560;2024-02-15T14:25:39;16.80;70.80
56729;DHT22;42612;52.232;7.560;2024-02-15T14:28:05;16.80;70.60
56729;DHT22;42612;52.232;7.560;2024-02-15T14:30:34;16.80;70.70
56729;DHT22;42612;52.232;7.560;2024-02-15T14:33:18;16.80;70.60
56729;DHT22;42612;52.232;7.560;2024-02-15T14:35:44;16.80;70.50
56729;DHT22;42612;52.232;7.560;2024-02-15T14:38:12;16.80;70.40
56729;DHT22;42612;52.232;7.560;2024-02-15T14:40:40;16.80;70.40
56729;DHT22;42612;52.232;7.560;2024-02-15T14:43:16;16.80;70.30
56729;DHT22;42612;52.232;7.560;2024-02-15T14:45:43;16.80;70.20
56729;DHT22;42612;52.232;7.560;2024-02-15T14:48:09;16.90;70.20
56729;DHT22;42612;52.232;7.560;2024-02-15T14:50:36;16.90;70.10
56729;DHT22;42612;52.232;7.560;2024-02-15T14:53:03;16.90;70.00
56729;DHT22;42612;52.232;7.560;2024-02-15T14:55:28;16.90;70.00
56729;DHT22;42612;52.232;7.560;2024-02-15T14:57:56;16.90;69.90
56729;DHT22;42612;52.232;7.560;2024-02-15T15:00:23;16.90;69.50
56729;DHT22;42612;52.232;7.560;2024-02-15T15:02:50;16.90;69.70
56729;DHT22;42612;52.232;7.560;2024-02-15T15:05:16;17.00;69.70
56729;DHT22;42612;52.232;7.560;2024-02-15T15:08:01;17.00;69.70
56729;DHT22;42612;52.232;7.560;2024-02-15T15:10:46;16.90;69.40
56729;DHT22;42612;52.232;7.560;2024-02-15T15:13:32;17.00;70.10
56729;DHT22;42612;52.232;7.560;2024-02-15T15:15:58;17.00;69.30
56729;DHT22;42612;52.232;7.560;2024-02-15T15:18:24;17.00;69.00
56729;DHT22;42612;52.232;7.560;2024-02-15T15:20:50;17.00;69.20
56729;DHT22;42612;52.232;7.560;2024-02-15T15:23:16;17.00;69.80
56729;DHT22;42612;52.232;7.560;2024-02-15T15:25:42;17.00;69.20
56729;DHT22;42612;52.232;7.560;2024-02-15T15:28:08;17.00;69.20
56729;DHT22;42612;52.232;7.560;2024-02-15T15:30:34;17.00;69.90
56729;DHT22;42612;52.232;7.560;2024-02-15T15:33:01;17.00;69.00
56729;DHT22;42612;52.232;7.560;2024-02-15T15:35:28;17.00;69.00
56729;DHT22;42612;52.232;7.560;2024-02-15T15:37:57;17.00;68.90
56729;DHT22;42612;52.232;7.560;2024-02-15T15:40:23;17.00;68.80
56729;DHT22;42612;52.232;7.560;2024-02-15T15:42:49;17.00;68.80
56729;DHT22;42612;52.232;7.560;2024-02-15T15:45:15;17.00;68.70
56729;DHT22;42612;52.232;7.560;2024-02-15T15:47:41;17.00;68.70
56729;DHT22;42612;52.232;7.560;2024-02-15T15:50:08;17.00;68.70
56729;DHT22;42612;52.232;7.560;2024-02-15T15:52:37;17.00;68.60
56729;DHT22;42612;52.232;7.560;2024-02-15T15:55:07;17.00;68.50
56729;DHT22;42612;52.232;7.560;2024-02-15T15:57:42;17.00;68.50
56729;DHT22;42612;52.232;7.560;2024-02-15T16:00:09;17.00;69.00
56729;DHT22;42612;52.232;7.560;2024-02-15T16:02:44;17.00;68.40